sensor_id;sensor_type;location;lat;lon;timestamp;temperature;humidity
21787;DHT22;11055;50.870;4.316;2022-08-21T00:01:55;21.30;99.90
21787;DHT22;11055;50.870;4.316;2022-08-21T00:04:21;21.20;99.90
21787;DHT22;11055;50.870;4.316;2022-08-21T00:06:47;21.10;99.90
21787;DHT22;11055;50.870;4.316;2022-08-21T00:09:13;21.00;99.90
21787;DHT22;11055;50.870;4.316;2022-08-21T00:11:38;20.80;99.90
21787;DHT22;11055;50.870;4.316;2022-08-21T00:14:04;20.70;99.90
21787;DHT22;11055;50.870;4.316;2022-08-21T00:16:31;20.50;99.90
21787;DHT22;11055;50.870;4.316;2022-08-21T00:18:56;20.50;99.90
21787;DHT22;11055;50.870;4.316;2022-08-21T00:21:22;20.50;99.90
21787;DHT22;11055;50.870;4.316;2022-08-21T00:23:47;20.30;99.90
21787;DHT22;11055;50.870;4.316;2022-08-21T00:26:13;20.10;99.90
21787;DHT22;11055;50.870;4.316;2022-08-21T00:28:39;20.10;99.90
21787;DHT22;11055;50.870;4.316;2022-08-21T00:31:04;20.10;99.90
21787;DHT22;11055;50.870;4.316;2022-08-21T00:33:30;19.90;99.90
21787;DHT22;11055;50.870;4.316;2022-08-21T00:35:56;19.90;99.90
21787;DHT22;11055;50.870;4.316;2022-08-21T00:38:21;19.80;99.90
21787;DHT22;11055;50.870;4.316;2022-08-21T00:40:48;19.70;99.90
21787;DHT22;11055;50.870;4.316;2022-08-21T00:43:16;19.70;99.90
21787;DHT22;11055;50.870;4.316;2022-08-21T00:45:42;19.60;99.90
21787;DHT22;11055;50.870;4.316;2022-08-21T00:48:08;19.60;99.90
21787;DHT22;11055;50.870;4.316;2022-08-21T00:50:34;19.50;99.90
21787;DHT22;11055;50.870;4.316;2022-08-21T00:53:01;19.40;99.90
21787;DHT22;11055;50.870;4.316;2022-08-21T00:55:27;19.60;99.90
21787;DHT22;11055;50.870;4.316;2022-08-21T00:57:54;19.60;99.90
21787;DHT22;11055;50.870;4.316;2022-08-21T01:00:26;19.60;99.90
21787;DHT22;11055;50.870;4.316;2022-08-21T01:02:54;19.60;99.90
21787;DHT22;11055;50.870;4.316;2022-08-21T01:05:19;19.50;99.90
21787;DHT22;11055;50.870;4.316;2022-08-21T01:07:45;19.30;99.90
21787;DHT22;11055;50.870;4.316;2022-08-21T01:10:11;19.30;99.90
21787;DHT22;11055;50.870;4.316;2022-08-21T01:12:37;19.10;99.90
21787;DHT22;11055;50.870;4.316;2022-08-21T01:15:05;19.10;99.90
21787;DHT22;11055;50.870;4.316;2022-08-21T01:17:31;19.30;99.90
21787;DHT22;11055;50.870;4.316;2022-08-21T01:19:57;19.30;99.90
21787;DHT22;11055;50.870;4.316;2022-08-21T01:22:23;19.30;99.90
21787;DHT22;11055;50.870;4.316;2022-08-21T01:24:48;19.50;99.90
21787;DHT22;11055;50.870;4.316;2022-08-21T01:27:15;19.30;99.90
21787;DHT22;11055;50.870;4.316;2022-08-21T01:32:12;19.00;99.90
21787;DHT22;11055;50.870;4.316;2022-08-21T01:34:38;19.20;99.90
21787;DHT22;11055;50.870;4.316;2022-08-21T01:37:04;19.30;99.90
21787;DHT22;11055;50.870;4.316;2022-08-21T01:39:30;19.30;99.90
21787;DHT22;11055;50.870;4.316;2022-08-21T01:41:56;19.30;99.90
21787;DHT22;11055;50.870;4.316;2022-08-21T01:44:21;19.30;99.90
21787;DHT22;11055;50.870;4.316;2022-08-21T01:46:47;19.40;99.90
21787;DHT22;11055;50.870;4.316;2022-08-21T01:49:13;19.30;99.90
21787;DHT22;11055;50.870;4.316;2022-08-21T01:51:40;19.10;99.90
21787;DHT22;11055;50.870;4.316;2022-08-21T01:54:05;19.20;99.90
21787;DHT22;11055;50.870;4.316;2022-08-21T01:56:35;19.30;99.90
21787;DHT22;11055;50.870;4.316;2022-08-21T01:59:01;19.30;99.90
21787;DHT22;11055;50.870;4.316;2022-08-21T02:01:27;19.00;99.90
21787;DHT22;11055;50.870;4.316;2022-08-21T02:03:52;18.80;99.90
21787;DHT22;11055;50.870;4.316;2022-08-21T02:06:18;18.60;99.90
21787;DHT22;11055;50.870;4.316;2022-08-21T02:08:44;18.50;99.90
21787;DHT22;11055;50.870;4.316;2022-08-21T02:11:10;18.50;99.90
21787;DHT22;11055;50.870;4.316;2022-08-21T02:13:35;18.50;99.90
21787;DHT22;11055;50.870;4.316;2022-08-21T02:16:01;18.30;99.90
21787;DHT22;11055;50.870;4.316;2022-08-21T02:18:26;18.10;99.90
21787;DHT22;11055;50.870;4.316;2022-08-21T02:20:52;18.10;99.90
21787;DHT22;11055;50.870;4.316;2022-08-21T02:23:18;18.00;99.90
21787;DHT22;11055;50.870;4.316;2022-08-21T02:25:43;18.10;99.90
21787;DHT22;11055;50.870;4.316;2022-08-21T02:28:12;18.30;99.90
21787;DHT22;11055;50.870;4.316;2022-08-21T02:30:39;18.40;99.90
21787;DHT22;11055;50.870;4.316;2022-08-21T02:33:05;18.40;99.90
21787;DHT22;11055;50.870;4.316;2022-08-21T02:35:31;18.30;99.90
21787;DHT22;11055;50.870;4.316;2022-08-21T02:37:58;18.40;99.90
21787;DHT22;11055;50.870;4.316;2022-08-21T02:40:26;18.50;99.90
21787;DHT22;11055;50.870;4.316;2022-08-21T02:42:52;18.60;99.90
21787;DHT22;11055;50.870;4.316;2022-08-21T02:45:18;18.90;99.90
21787;DHT22;11055;50.870;4.316;2022-08-21T02:47:50;19.00;99.90
21787;DHT22;11055;50.870;4.316;2022-08-21T02:50:17;19.00;99.90
21787;DHT22;11055;50.870;4.316;2022-08-21T02:52:43;18.80;99.90
21787;DHT22;11055;50.870;4.316;2022-08-21T02:55:10;18.70;99.90
21787;DHT22;11055;50.870;4.316;2022-08-21T02:57:36;18.70;99.90
21787;DHT22;11055;50.870;4.316;2022-08-21T03:00:02;18.80;99.90
21787;DHT22;11055;50.870;4.316;2022-08-21T03:02:28;18.90;99.90
21787;DHT22;11055;50.870;4.316;2022-08-21T03:04:54;19.10;99.90
21787;DHT22;11055;50.870;4.316;2022-08-21T03:07:19;19.00;99.90
21787;DHT22;11055;50.870;4.316;2022-08-21T03:09:45;18.90;99.90
21787;DHT22;11055;50.870;4.316;2022-08-21T03:12:10;18.70;99.90
21787;DHT22;11055;50.870;4.316;2022-08-21T03:14:36;18.50;99.90
21787;DHT22;11055;50.870;4.316;2022-08-21T03:17:01;18.50;99.90
21787;DHT22;11055;50.870;4.316;2022-08-21T03:19:27;18.30;99.90
21787;DHT22;11055;50.870;4.316;2022-08-21T03:21:52;18.10;99.90
21787;DHT22;11055;50.870;4.316;2022-08-21T03:24:18;18.20;99.90
21787;DHT22;11055;50.870;4.316;2022-08-21T03:26:43;18.20;99.90
21787;DHT22;11055;50.870;4.316;2022-08-21T03:29:09;18.40;99.90
21787;DHT22;11055;50.870;4.316;2022-08-21T03:31:34;18.40;99.90
21787;DHT22;11055;50.870;4.316;2022-08-21T03:34:00;18.50;99.90
21787;DHT22;11055;50.870;4.316;2022-08-21T03:36:25;18.40;99.90
21787;DHT22;11055;50.870;4.316;2022-08-21T03:38:51;18.40;99.90
21787;DHT22;11055;50.870;4.316;2022-08-21T03:41:16;18.40;99.90
21787;DHT22;11055;50.870;4.316;2022-08-21T03:43:42;18.60;99.90
21787;DHT22;11055;50.870;4.316;2022-08-21T03:46:08;18.60;99.90
21787;DHT22;11055;50.870;4.316;2022-08-21T03:48:34;18.70;99.90
21787;DHT22;11055;50.870;4.316;2022-08-21T03:51:00;18.80;99.90
21787;DHT22;11055;50.870;4.316;2022-08-21T03:53:26;18.90;99.90
21787;DHT22;11055;50.870;4.316;2022-08-21T03:55:51;18.80;99.90
21787;DHT22;11055;50.870;4.316;2022-08-21T03:58:18;18.80;99.90
21787;DHT22;11055;50.870;4.316;2022-08-21T04:00:45;18.80;99.90
21787;DHT22;11055;50.870;4.316;2022-08-21T04:03:10;19.00;99.90
21787;DHT22;11055;50.870;4.316;2022-08-21T04:05:36;18.80;99.90
21787;DHT22;11055;50.870;4.316;2022-08-21T04:08:03;18.90;99.90
21787;DHT22;11055;50.870;4.316;2022-08-21T04:10:30;18.90;99.90
21787;DHT22;11055;50.870;4.316;2022-08-21T04:12:56;18.90;99.90
21787;DHT22;11055;50.870;4.316;2022-08-21T04:15:22;18.90;99.90
21787;DHT22;11055;50.870;4.316;2022-08-21T04:17:48;18.80;99.90
21787;DHT22;11055;50.870;4.316;2022-08-21T04:20:15;18.80;99.90
21787;DHT22;11055;50.870;4.316;2022-08-21T04:22:40;18.60;99.90
21787;DHT22;11055;50.870;4.316;2022-08-21T04:25:06;18.50;99.90
21787;DHT22;11055;50.870;4.316;2022-08-21T04:27:33;18.70;99.90
21787;DHT22;11055;50.870;4.316;2022-08-21T04:29:58;18.70;99.90
21787;DHT22;11055;50.870;4.316;2022-08-21T04:32:25;18.40;99.90
21787;DHT22;11055;50.870;4.316;2022-08-21T04:34:56;18.20;99.90
21787;DHT22;11055;50.870;4.316;2022-08-21T04:37:22;18.00;99.90
21787;DHT22;11055;50.870;4.316;2022-08-21T04:39:48;18.00;99.90
21787;DHT22;11055;50.870;4.316;2022-08-21T04:42:13;17.90;99.90
21787;DHT22;11055;50.870;4.316;2022-08-21T04:44:39;17.70;99.90
21787;DHT22;11055;50.870;4.316;2022-08-21T04:47:06;17.70;99.90
21787;DHT22;11055;50.870;4.316;2022-08-21T04:49:32;17.70;99.90
21787;DHT22;11055;50.870;4.316;2022-08-21T04:51:58;17.70;99.90
21787;DHT22;11055;50.870;4.316;2022-08-21T04:54:24;17.70;99.90
21787;DHT22;11055;50.870;4.316;2022-08-21T04:56:51;17.60;99.90
21787;DHT22;11055;50.870;4.316;2022-08-21T04:59:20;17.60;99.90
21787;DHT22;11055;50.870;4.316;2022-08-21T05:01:47;17.50;99.90
21787;DHT22;11055;50.870;4.316;2022-08-21T05:04:16;17.60;99.90
21787;DHT22;11055;50.870;4.316;2022-08-21T05:06:44;17.60;99.90
21787;DHT22;11055;50.870;4.316;2022-08-21T05:09:11;17.70;99.90
21787;DHT22;11055;50.870;4.316;2022-08-21T05:11:37;17.70;99.90
21787;DHT22;11055;50.870;4.316;2022-08-21T05:14:03;17.70;99.90
21787;DHT22;11055;50.870;4.316;2022-08-21T05:16:29;17.60;99.90
21787;DHT22;11055;50.870;4.316;2022-08-21T05:18:54;17.60;99.90
21787;DHT22;11055;50.870;4.316;2022-08-21T05:21:20;17.70;99.90
21787;DHT22;11055;50.870;4.316;2022-08-21T05:23:46;17.60;99.90
21787;DHT22;11055;50.870;4.316;2022-08-21T05:26:11;17.60;99.90
21787;DHT22;11055;50.870;4.316;2022-08-21T05:28:37;17.70;99.90
21787;DHT22;11055;50.870;4.316;2022-08-21T05:31:02;17.70;99.90
21787;DHT22;11055;50.870;4.316;2022-08-21T05:33:28;17.70;99.90
21787;DHT22;11055;50.870;4.316;2022-08-21T05:35:54;17.70;99.90
21787;DHT22;11055;50.870;4.316;2022-08-21T05:38:23;17.60;99.90
21787;DHT22;11055;50.870;4.316;2022-08-21T05:40:49;17.60;99.90
21787;DHT22;11055;50.870;4.316;2022-08-21T05:43:14;17.50;99.90
21787;DHT22;11055;50.870;4.316;2022-08-21T05:45:40;17.60;99.90
21787;DHT22;11055;50.870;4.316;2022-08-21T05:48:06;17.70;99.90
21787;DHT22;11055;50.870;4.316;2022-08-21T05:50:32;17.60;99.90
21787;DHT22;11055;50.870;4.316;2022-08-21T05:52:58;17.50;99.90
21787;DHT22;11055;50.870;4.316;2022-08-21T05:55:23;17.60;99.90
21787;DHT22;11055;50.870;4.316;2022-08-21T05:57:49;17.70;99.90
21787;DHT22;11055;50.870;4.316;2022-08-21T06:00:14;17.80;99.90
21787;DHT22;11055;50.870;4.316;2022-08-21T06:02:41;17.90;99.90
21787;DHT22;11055;50.870;4.316;2022-08-21T06:05:06;17.90;99.90
21787;DHT22;11055;50.870;4.316;2022-08-21T06:07:32;18.00;99.90
21787;DHT22;11055;50.870;4.316;2022-08-21T06:09:58;17.90;99.90
21787;DHT22;11055;50.870;4.316;2022-08-21T06:12:23;17.90;99.90
21787;DHT22;11055;50.870;4.316;2022-08-21T06:14:50;17.90;99.90
21787;DHT22;11055;50.870;4.316;2022-08-21T06:17:17;18.00;99.90
21787;DHT22;11055;50.870;4.316;2022-08-21T06:19:43;18.10;99.90
21787;DHT22;11055;50.870;4.316;2022-08-21T06:22:08;18.30;99.90
21787;DHT22;11055;50.870;4.316;2022-08-21T06:24:34;18.20;99.90
21787;DHT22;11055;50.870;4.316;2022-08-21T06:27:07;18.10;99.90
21787;DHT22;11055;50.870;4.316;2022-08-21T06:29:33;18.00;99.90
21787;DHT22;11055;50.870;4.316;2022-08-21T06:31:59;17.90;99.90
21787;DHT22;11055;50.870;4.316;2022-08-21T06:34:24;17.80;99.90
21787;DHT22;11055;50.870;4.316;2022-08-21T06:36:50;17.70;99.90
21787;DHT22;11055;50.870;4.316;2022-08-21T06:39:15;17.70;99.90
21787;DHT22;11055;50.870;4.316;2022-08-21T06:41:41;17.70;99.90
21787;DHT22;11055;50.870;4.316;2022-08-21T06:44:06;17.70;99.90
21787;DHT22;11055;50.870;4.316;2022-08-21T06:46:32;17.80;99.90
21787;DHT22;11055;50.870;4.316;2022-08-21T06:48:57;17.90;99.90
21787;DHT22;11055;50.870;4.316;2022-08-21T06:51:23;18.00;99.90
21787;DHT22;11055;50.870;4.316;2022-08-21T06:53:51;18.10;99.90
21787;DHT22;11055;50.870;4.316;2022-08-21T06:56:16;18.30;99.90
21787;DHT22;11055;50.870;4.316;2022-08-21T06:58:42;18.40;99.90
21787;DHT22;11055;50.870;4.316;2022-08-21T07:01:07;18.50;99.90
21787;DHT22;11055;50.870;4.316;2022-08-21T07:03:35;18.50;99.90
21787;DHT22;11055;50.870;4.316;2022-08-21T07:06:01;18.60;99.90
21787;DHT22;11055;50.870;4.316;2022-08-21T07:08:27;18.60;99.90
21787;DHT22;11055;50.870;4.316;2022-08-21T07:10:53;18.70;99.90
21787;DHT22;11055;50.870;4.316;2022-08-21T07:13:20;18.90;99.90
21787;DHT22;11055;50.870;4.316;2022-08-21T07:15:45;19.00;99.90
21787;DHT22;11055;50.870;4.316;2022-08-21T07:18:11;18.90;99.90
21787;DHT22;11055;50.870;4.316;2022-08-21T07:20:37;18.80;99.90
21787;DHT22;11055;50.870;4.316;2022-08-21T07:23:04;18.80;99.90
21787;DHT22;11055;50.870;4.316;2022-08-21T07:25:30;18.80;99.90
21787;DHT22;11055;50.870;4.316;2022-08-21T07:27:56;19.00;99.90
21787;DHT22;11055;50.870;4.316;2022-08-21T07:30:22;19.00;99.90
21787;DHT22;11055;50.870;4.316;2022-08-21T07:32:47;18.90;99.90
21787;DHT22;11055;50.870;4.316;2022-08-21T07:35:17;19.00;99.90
21787;DHT22;11055;50.870;4.316;2022-08-21T07:37:42;19.00;99.90
21787;DHT22;11055;50.870;4.316;2022-08-21T07:40:08;19.30;99.90
21787;DHT22;11055;50.870;4.316;2022-08-21T07:42:34;19.60;99.90
21787;DHT22;11055;50.870;4.316;2022-08-21T07:44:59;19.70;99.90
21787;DHT22;11055;50.870;4.316;2022-08-21T07:47:25;19.80;99.90
21787;DHT22;11055;50.870;4.316;2022-08-21T07:49:50;19.90;99.90
21787;DHT22;11055;50.870;4.316;2022-08-21T07:52:16;20.00;99.90
21787;DHT22;11055;50.870;4.316;2022-08-21T07:54:41;20.20;99.90
21787;DHT22;11055;50.870;4.316;2022-08-21T07:57:07;20.30;99.90
21787;DHT22;11055;50.870;4.316;2022-08-21T07:59:32;20.50;99.90
21787;DHT22;11055;50.870;4.316;2022-08-21T08:01:58;20.60;99.90
21787;DHT22;11055;50.870;4.316;2022-08-21T08:04:23;20.70;99.90
21787;DHT22;11055;50.870;4.316;2022-08-21T08:06:49;20.60;99.90
21787;DHT22;11055;50.870;4.316;2022-08-21T08:09:15;20.50;99.90
21787;DHT22;11055;50.870;4.316;2022-08-21T08:11:41;20.50;99.90
21787;DHT22;11055;50.870;4.316;2022-08-21T08:14:09;20.50;99.90
21787;DHT22;11055;50.870;4.316;2022-08-21T08:16:34;20.50;99.90
21787;DHT22;11055;50.870;4.316;2022-08-21T08:19:00;20.50;99.90
21787;DHT22;11055;50.870;4.316;2022-08-21T08:21:25;20.70;99.90
21787;DHT22;11055;50.870;4.316;2022-08-21T08:23:51;20.80;99.90
21787;DHT22;11055;50.870;4.316;2022-08-21T08:26:17;20.80;99.90
21787;DHT22;11055;50.870;4.316;2022-08-21T08:28:43;20.40;99.90
21787;DHT22;11055;50.870;4.316;2022-08-21T08:31:09;20.30;99.90
21787;DHT22;11055;50.870;4.316;2022-08-21T08:33:36;20.30;99.90
21787;DHT22;11055;50.870;4.316;2022-08-21T08:36:02;20.40;99.90
21787;DHT22;11055;50.870;4.316;2022-08-21T08:38:27;20.50;99.90
21787;DHT22;11055;50.870;4.316;2022-08-21T08:43:38;20.70;99.90
21787;DHT22;11055;50.870;4.316;2022-08-21T08:46:05;20.70;99.90
21787;DHT22;11055;50.870;4.316;2022-08-21T08:51:07;20.70;99.90
21787;DHT22;11055;50.870;4.316;2022-08-21T08:53:58;20.50;99.90
21787;DHT22;11055;50.870;4.316;2022-08-21T08:56:22;20.40;99.90
21787;DHT22;11055;50.870;4.316;2022-08-21T08:58:48;20.50;99.90
21787;DHT22;11055;50.870;4.316;2022-08-21T09:01:16;20.50;99.90
21787;DHT22;11055;50.870;4.316;2022-08-21T09:03:43;20.40;99.90
21787;DHT22;11055;50.870;4.316;2022-08-21T09:08:49;20.40;99.90
21787;DHT22;11055;50.870;4.316;2022-08-21T09:16:21;20.20;99.90
21787;DHT22;11055;50.870;4.316;2022-08-21T09:18:55;20.20;99.90
21787;DHT22;11055;50.870;4.316;2022-08-21T09:21:31;20.30;99.90
21787;DHT22;11055;50.870;4.316;2022-08-21T09:24:08;20.40;99.90
21787;DHT22;11055;50.870;4.316;2022-08-21T09:26:45;20.30;99.90
21787;DHT22;11055;50.870;4.316;2022-08-21T09:29:13;20.40;99.90
21787;DHT22;11055;50.870;4.316;2022-08-21T09:31:41;20.40;99.90
21787;DHT22;11055;50.870;4.316;2022-08-21T09:34:07;20.60;99.90
21787;DHT22;11055;50.870;4.316;2022-08-21T09:36:41;20.70;99.90
21787;DHT22;11055;50.870;4.316;2022-08-21T09:39:08;20.80;99.90
21787;DHT22;11055;50.870;4.316;2022-08-21T09:41:34;21.00;99.90
21787;DHT22;11055;50.870;4.316;2022-08-21T09:44:01;21.10;99.90
21787;DHT22;11055;50.870;4.316;2022-08-21T09:46:26;21.10;99.90
21787;DHT22;11055;50.870;4.316;2022-08-21T09:48:54;21.10;99.90
21787;DHT22;11055;50.870;4.316;2022-08-21T09:51:21;21.20;99.90
21787;DHT22;11055;50.870;4.316;2022-08-21T09:53:51;21.20;99.90
21787;DHT22;11055;50.870;4.316;2022-08-21T09:56:36;21.30;99.90
21787;DHT22;11055;50.870;4.316;2022-08-21T10:01:48;21.20;99.90
21787;DHT22;11055;50.870;4.316;2022-08-21T10:04:14;21.20;99.90
21787;DHT22;11055;50.870;4.316;2022-08-21T10:06:40;21.20;99.90
21787;DHT22;11055;50.870;4.316;2022-08-21T10:09:07;21.30;99.90
21787;DHT22;11055;50.870;4.316;2022-08-21T10:11:34;21.40;99.90
21787;DHT22;11055;50.870;4.316;2022-08-21T10:14:03;21.50;99.90
21787;DHT22;11055;50.870;4.316;2022-08-21T10:16:32;21.70;99.90
21787;DHT22;11055;50.870;4.316;2022-08-21T10:21:34;22.20;99.90
21787;DHT22;11055;50.870;4.316;2022-08-21T10:24:08;22.20;99.90
21787;DHT22;11055;50.870;4.316;2022-08-21T10:26:40;21.90;99.90
21787;DHT22;11055;50.870;4.316;2022-08-21T10:29:28;21.90;99.90
21787;DHT22;11055;50.870;4.316;2022-08-21T10:34:36;22.10;99.90
21787;DHT22;11055;50.870;4.316;2022-08-21T10:39:34;22.10;99.90
21787;DHT22;11055;50.870;4.316;2022-08-21T10:54:49;23.20;99.90
21787;DHT22;11055;50.870;4.316;2022-08-21T10:57:19;23.40;99.90
21787;DHT22;11055;50.870;4.316;2022-08-21T10:59:49;23.20;99.90
21787;DHT22;11055;50.870;4.316;2022-08-21T11:02:22;23.10;99.90
21787;DHT22;11055;50.870;4.316;2022-08-21T11:04:55;23.10;99.90
21787;DHT22;11055;50.870;4.316;2022-08-21T11:07:25;22.90;99.90
21787;DHT22;11055;50.870;4.316;2022-08-21T11:09:51;23.20;99.90
21787;DHT22;11055;50.870;4.316;2022-08-21T11:12:22;23.30;99.90
21787;DHT22;11055;50.870;4.316;2022-08-21T11:14:56;23.50;99.90
21787;DHT22;11055;50.870;4.316;2022-08-21T11:17:30;23.30;99.90
21787;DHT22;11055;50.870;4.316;2022-08-21T11:20:10;22.90;99.90
21787;DHT22;11055;50.870;4.316;2022-08-21T11:25:03;22.80;99.90
21787;DHT22;11055;50.870;4.316;2022-08-21T11:27:43;23.00;99.90
21787;DHT22;11055;50.870;4.316;2022-08-21T11:30:11;23.20;99.90
21787;DHT22;11055;50.870;4.316;2022-08-21T11:50:30;23.80;99.90
21787;DHT22;11055;50.870;4.316;2022-08-21T11:53:14;23.80;99.90
21787;DHT22;11055;50.870;4.316;2022-08-21T11:55:45;24.10;99.90
21787;DHT22;11055;50.870;4.316;2022-08-21T11:58:25;24.30;99.90
21787;DHT22;11055;50.870;4.316;2022-08-21T12:00:52;24.40;99.90
21787;DHT22;11055;50.870;4.316;2022-08-21T12:05:58;24.80;99.90
21787;DHT22;11055;50.870;4.316;2022-08-21T12:08:29;25.10;99.90
21787;DHT22;11055;50.870;4.316;2022-08-21T12:11:03;25.40;99.90
21787;DHT22;11055;50.870;4.316;2022-08-21T12:13:30;25.60;99.90
21787;DHT22;11055;50.870;4.316;2022-08-21T12:16:10;25.30;99.90
21787;DHT22;11055;50.870;4.316;2022-08-21T12:18:36;25.00;99.90
21787;DHT22;11055;50.870;4.316;2022-08-21T12:21:19;24.70;99.90
21787;DHT22;11055;50.870;4.316;2022-08-21T12:26:18;24.90;99.90
21787;DHT22;11055;50.870;4.316;2022-08-21T12:28:46;25.00;99.90
21787;DHT22;11055;50.870;4.316;2022-08-21T12:31:23;25.50;99.90
21787;DHT22;11055;50.870;4.316;2022-08-21T12:33:51;25.60;99.90
21787;DHT22;11055;50.870;4.316;2022-08-21T12:36:20;25.90;99.90
21787;DHT22;11055;50.870;4.316;2022-08-21T12:38:51;25.80;99.90
21787;DHT22;11055;50.870;4.316;2022-08-21T12:41:19;25.70;99.90
21787;DHT22;11055;50.870;4.316;2022-08-21T12:43:51;25.60;99.90
21787;DHT22;11055;50.870;4.316;2022-08-21T12:46:29;25.10;99.90
21787;DHT22;11055;50.870;4.316;2022-08-21T12:48:57;24.80;99.90
21787;DHT22;11055;50.870;4.316;2022-08-21T12:53:55;24.60;99.90
21787;DHT22;11055;50.870;4.316;2022-08-21T12:56:25;24.70;99.90
21787;DHT22;11055;50.870;4.316;2022-08-21T12:58:51;24.60;99.90
21787;DHT22;11055;50.870;4.316;2022-08-21T13:04:13;24.20;99.90
21787;DHT22;11055;50.870;4.316;2022-08-21T13:06:40;24.10;99.90
21787;DHT22;11055;50.870;4.316;2022-08-21T13:09:11;24.10;99.90
21787;DHT22;11055;50.870;4.316;2022-08-21T13:11:38;24.10;99.90
21787;DHT22;11055;50.870;4.316;2022-08-21T13:14:04;24.10;99.90
21787;DHT22;11055;50.870;4.316;2022-08-21T13:16:30;24.00;99.90
21787;DHT22;11055;50.870;4.316;2022-08-21T13:19:00;24.00;99.90
21787;DHT22;11055;50.870;4.316;2022-08-21T13:21:39;23.90;99.90
21787;DHT22;11055;50.870;4.316;2022-08-21T13:26:34;24.00;99.90
21787;DHT22;11055;50.870;4.316;2022-08-21T13:29:06;23.90;99.90
21787;DHT22;11055;50.870;4.316;2022-08-21T13:31:32;24.00;99.90
21787;DHT22;11055;50.870;4.316;2022-08-21T13:33:58;24.00;99.90
21787;DHT22;11055;50.870;4.316;2022-08-21T13:36:25;24.10;99.90
21787;DHT22;11055;50.870;4.316;2022-08-21T13:38:51;24.10;99.90
21787;DHT22;11055;50.870;4.316;2022-08-21T13:41:20;24.20;99.90
21787;DHT22;11055;50.870;4.316;2022-08-21T13:43:55;24.10;99.90
21787;DHT22;11055;50.870;4.316;2022-08-21T13:46:22;24.20;99.90
21787;DHT22;11055;50.870;4.316;2022-08-21T13:48:49;24.30;99.90
21787;DHT22;11055;50.870;4.316;2022-08-21T13:51:15;24.30;99.90
21787;DHT22;11055;50.870;4.316;2022-08-21T13:56:06;24.40;99.90
21787;DHT22;11055;50.870;4.316;2022-08-21T13:58:33;24.50;99.90
21787;DHT22;11055;50.870;4.316;2022-08-21T14:01:15;24.40;99.90
21787;DHT22;11055;50.870;4.316;2022-08-21T14:03:42;24.40;99.90
21787;DHT22;11055;50.870;4.316;2022-08-21T14:06:16;24.30;99.90
21787;DHT22;11055;50.870;4.316;2022-08-21T14:08:42;24.10;99.90
21787;DHT22;11055;50.870;4.316;2022-08-21T14:11:12;24.10;99.90
21787;DHT22;11055;50.870;4.316;2022-08-21T14:16:10;24.40;99.90
21787;DHT22;11055;50.870;4.316;2022-08-21T14:18:50;24.30;99.90
21787;DHT22;11055;50.870;4.316;2022-08-21T14:21:33;24.40;99.90
21787;DHT22;11055;50.870;4.316;2022-08-21T14:24:09;24.20;99.90
21787;DHT22;11055;50.870;4.316;2022-08-21T14:26:42;24.20;99.90
21787;DHT22;11055;50.870;4.316;2022-08-21T14:29:08;24.00;99.90
21787;DHT22;11055;50.870;4.316;2022-08-21T14:31:34;24.10;99.90
21787;DHT22;11055;50.870;4.316;2022-08-21T14:34:00;24.20;99.90
21787;DHT22;11055;50.870;4.316;2022-08-21T14:36:26;24.30;99.90
21787;DHT22;11055;50.870;4.316;2022-08-21T14:38:52;24.30;99.90
21787;DHT22;11055;50.870;4.316;2022-08-21T14:41:19;24.20;99.90
21787;DHT22;11055;50.870;4.316;2022-08-21T14:43:46;24.00;99.90
21787;DHT22;11055;50.870;4.316;2022-08-21T14:46:13;24.00;99.90
21787;DHT22;11055;50.870;4.316;2022-08-21T14:48:44;24.10;99.90
21787;DHT22;11055;50.870;4.316;2022-08-21T14:51:11;24.20;99.90
21787;DHT22;11055;50.870;4.316;2022-08-21T14:53:37;24.40;99.90
21787;DHT22;11055;50.870;4.316;2022-08-21T14:56:02;24.40;99.90
21787;DHT22;11055;50.870;4.316;2022-08-21T14:58:31;24.40;99.90
21787;DHT22;11055;50.870;4.316;2022-08-21T15:00:57;24.40;99.90
21787;DHT22;11055;50.870;4.316;2022-08-21T15:03:23;24.40;99.90
21787;DHT22;11055;50.870;4.316;2022-08-21T15:05:49;24.30;99.90
21787;DHT22;11055;50.870;4.316;2022-08-21T15:08:15;24.40;99.90
21787;DHT22;11055;50.870;4.316;2022-08-21T15:10:41;24.40;99.90
21787;DHT22;11055;50.870;4.316;2022-08-21T15:13:06;24.50;99.90
21787;DHT22;11055;50.870;4.316;2022-08-21T15:15:34;24.40;99.90
21787;DHT22;11055;50.870;4.316;2022-08-21T15:18:01;24.40;99.90
21787;DHT22;11055;50.870;4.316;2022-08-21T15:20:26;24.40;99.90
21787;DHT22;11055;50.870;4.316;2022-08-21T15:22:52;24.40;99.90
21787;DHT22;11055;50.870;4.316;2022-08-21T15:25:17;24.40;99.90
21787;DHT22;11055;50.870;4.316;2022-08-21T15:27:43;24.30;99.90
21787;DHT22;11055;50.870;4.316;2022-08-21T15:30:09;24.30;99.90
21787;DHT22;11055;50.870;4.316;2022-08-21T15:32:34;24.40;99.90
21787;DHT22;11055;50.870;4.316;2022-08-21T15:35:00;24.20;99.90
21787;DHT22;11055;50.870;4.316;2022-08-21T15:37:27;24.10;99.90
21787;DHT22;11055;50.870;4.316;2022-08-21T15:39:53;24.00;99.90
21787;DHT22;11055;50.870;4.316;2022-08-21T15:42:19;23.80;99.90
21787;DHT22;11055;50.870;4.316;2022-08-21T15:44:45;23.70;99.90
21787;DHT22;11055;50.870;4.316;2022-08-21T15:47:13;23.80;99.90
21787;DHT22;11055;50.870;4.316;2022-08-21T15:49:39;23.90;99.90
21787;DHT22;11055;50.870;4.316;2022-08-21T15:52:04;23.90;99.90
21787;DHT22;11055;50.870;4.316;2022-08-21T15:54:30;23.90;99.90
21787;DHT22;11055;50.870;4.316;2022-08-21T15:56:56;24.00;99.90
21787;DHT22;11055;50.870;4.316;2022-08-21T15:59:21;24.20;99.90
21787;DHT22;11055;50.870;4.316;2022-08-21T16:01:50;24.10;99.90
21787;DHT22;11055;50.870;4.316;2022-08-21T16:04:21;24.20;99.90
21787;DHT22;11055;50.870;4.316;2022-08-21T16:06:47;24.40;99.90
21787;DHT22;11055;50.870;4.316;2022-08-21T16:09:14;24.50;99.90
21787;DHT22;11055;50.870;4.316;2022-08-21T16:11:40;24.60;99.90
21787;DHT22;11055;50.870;4.316;2022-08-21T16:14:06;24.50;99.90
21787;DHT22;11055;50.870;4.316;2022-08-21T16:16:32;24.50;99.90
21787;DHT22;11055;50.870;4.316;2022-08-21T16:18:58;24.40;99.80
21787;DHT22;11055;50.870;4.316;2022-08-21T16:21:24;24.50;99.90
21787;DHT22;11055;50.870;4.316;2022-08-21T16:23:50;24.40;99.90
21787;DHT22;11055;50.870;4.316;2022-08-21T16:26:15;24.20;99.90
21787;DHT22;11055;50.870;4.316;2022-08-21T16:28:41;24.20;99.90
21787;DHT22;11055;50.870;4.316;2022-08-21T16:31:07;24.20;99.90
21787;DHT22;11055;50.870;4.316;2022-08-21T16:33:34;24.30;99.90
21787;DHT22;11055;50.870;4.316;2022-08-21T16:36:01;24.40;99.90
21787;DHT22;11055;50.870;4.316;2022-08-21T16:38:27;24.40;99.90
21787;DHT22;11055;50.870;4.316;2022-08-21T16:40:53;24.50;99.90
21787;DHT22;11055;50.870;4.316;2022-08-21T16:43:20;24.50;99.90
21787;DHT22;11055;50.870;4.316;2022-08-21T16:45:46;24.30;99.90
21787;DHT22;11055;50.870;4.316;2022-08-21T16:48:12;24.40;99.90